METAR Data
IDs: Format: Raw Decoded Include TAF

Data at: 2204 UTC 10 May 2021

KAEJ 102155Z AUTO 20013G25KT 190V250 10SM SCT070 BKN090 BKN110 13/M11 A2995 RMK AO2 T01271114
KAEJ 102135Z AUTO 24016G25KT 10SM SCT065 BKN085 OVC120 13/M11 A2995 RMK AO2 T01261115
KAEJ 102115Z AUTO 31012G26KT 260V340 10SM SCT046 SCT060 BKN085 12/M08 A2995 RMK AO2 T01211081
KAEJ 102055Z AUTO 33005KT 10SM SCT045 BKN070 OVC080 10/M06 A2997 RMK AO2 T00961062
KAEJ 102035Z AUTO 33012G17KT 10SM SCT055 SCT070 OVC080 10/M03 A2995 RMK AO2 T00971033
KAEJ 102015Z AUTO 34011G17KT 10SM SCT070 OVC080 09/M03 A2995 RMK AO2 T00941028
KAEJ 101955Z AUTO 32013KT 10SM SCT070 OVC090 08/M01 A2997 RMK AO2 T00751007
KAEJ 101935Z AUTO 34007KT 10SM SCT070 OVC090 09/M03 A2996 RMK AO2 T00861029
KAEJ 101915Z AUTO 07003KT 10SM SCT080 BKN090 BKN110 08/M01 A2997 RMK AO2 T00791015
KAEJ 101855Z AUTO 14007KT 10SM BKN085 OVC110 08/M02 A2999 RMK AO2 T00771018
KAEJ 101835Z AUTO 12009G14KT 100V160 10SM SCT060 SCT065 BKN085 08/M02 A2998 RMK AO2 T00831016
KAEJ 101815Z AUTO 15010G14KT 10SM BKN060 BKN070 BKN085 08/M02 A2999 RMK AO2 T00791016
KAEJ 101755Z AUTO 13014KT 10SM SCT045 BKN060 BKN070 08/M01 A2999 RMK AO2 LTG DSNT N T00751013 10075 20005
KAEJ 101735Z AUTO 14014G18KT 10SM SCT042 BKN050 07/M01 A3000 RMK AO2 T00671012
KAEJ 101715Z AUTO 14006KT 10SM SCT041 SCT047 BKN055 06/M01 A3001 RMK AO2 T00631008
KAEJ 101655Z AUTO 11003KT 10SM BKN019 BKN047 OVC050 05/M01 A3002 RMK AO2 T00501013
KAEJ 101635Z AUTO 00000KT 10SM OVC017 04/M01 A3002 RMK AO2 T00401011
KAEJ 101615Z AUTO 11003KT 10SM OVC017 04/M01 A3003 RMK AO2 T00371014
KAEJ 101555Z AUTO 00000KT 10SM OVC017 03/M01 A3003 RMK AO2 T00331015
KAEJ 101535Z AUTO 10005KT 10SM BKN017 BKN024 OVC075 04/M01 A3003 RMK AO2 T00361010
KAEJ 101515Z AUTO 14008KT 10SM SCT015 BKN075 OVC080 03/M01 A3004 RMK AO2 T00311012
KAEJ 101455Z AUTO 11007KT 10SM BKN013 BKN019 OVC075 03/M01 A3004 RMK AO2 T00301009
KAEJ 101435Z AUTO 12006KT 10SM BKN013 BKN019 OVC075 02/M01 A3004 RMK AO2 T00241012
KAEJ 101415Z AUTO 12007KT 10SM SCT008 SCT015 OVC021 02/M01 A3005 RMK AO2 T00201011
KAEJ 101355Z AUTO 10008KT 10SM SCT008 BKN015 BKN023 02/M01 A3005 RMK AO2 T00151008
KAEJ 101335Z AUTO 14008KT 10SM BKN020 BKN026 01/M01 A3005 RMK AO2 T00131010
KAEJ 101315Z AUTO 15007KT 10SM OVC020 01/M01 A3005 RMK AO2 T00091009
KAEJ 101255Z AUTO 11006KT 10SM OVC020 01/M01 A3006 RMK AO2 T00051012
KAEJ 101235Z AUTO 13007KT 10SM OVC020 01/M01 A3006 RMK AO2 T00051011
KAEJ 101215Z AUTO 13008KT 10SM SCT005 SCT008 OVC020 01/M01 A3006 RMK AO2 T00081010
KAEJ 101155Z AUTO 13006KT 10SM BKN006 OVC016 01/M01 A3007 RMK AO2 T00081007 10025 20008
KAEJ 101135Z AUTO 12006KT 10SM BKN006 OVC014 01/M01 A3007 RMK AO2 T00101007
KAEJ 101115Z AUTO 12006KT 10SM SCT006 OVC014 01/M01 A3007 RMK AO2 T00101006
KAEJ 101055Z AUTO 12004KT 10SM SCT006 OVC012 01/00 A3007 RMK AO2 T00121005
KAEJ 101035Z AUTO 14007KT 10SM OVC012 01/00 A3007 RMK AO2 T00121005
KAEJ 101015Z AUTO 16007KT 7SM -DZ BKN010 OVC015 01/00 A3008 RMK AO2 T00121005
KAEJ 100955Z AUTO 15005KT 5SM UP SCT005 OVC010 01/00 A3009 RMK AO2 T00101005
KAEJ 100935Z AUTO 14005KT 5SM SN BKN005 BKN010 OVC014 01/00 A3008 RMK AO2 T00131002
KAEJ 100915Z AUTO 14005KT 5SM -RA BKN005 OVC010 02/00 A3009 RMK AO2 T00151001
KAEJ 100855Z AUTO 13005KT 7SM -RA SCT004 BKN010 OVC015 02/00 A3009 RMK AO2 T00151002
KAEJ 100835Z AUTO 15003KT 4SM -SN SCT006 OVC012 01/00 A3009 RMK AO2 T00121005
KAEJ 100815Z AUTO 17004KT 4SM -SN BKN014 OVC019 02/M01 A3009 RMK AO2 T00151007
KAEJ 100755Z AUTO 15005KT 7SM DZ SCT012 OVC018 02/00 A3010 RMK AO2 T00211005
KAEJ 100735Z AUTO 12003KT 10SM -DZ OVC011 02/M01 A3010 RMK AO2 T00231009
KAEJ 100715Z AUTO 10004KT 10SM BKN013 OVC020 03/M01 A3010 RMK AO2 T00251010
KAEJ 100655Z AUTO 12004KT 10SM SCT013 OVC020 02/M01 A3010 RMK AO2 LTG DSNT SE T00221010
KAEJ 100635Z AUTO 12005KT 10SM BKN014 OVC020 02/M01 A3010 RMK AO2 T00221010
KAEJ 100615Z AUTO 10003KT 10SM BKN014 02/M01 A3010 RMK AO2 T00191012
KAEJ 100555Z AUTO 08003KT 10SM CLR 02/M02 A3010 RMK AO2 T00151016 10117 20015 401321016
KAEJ 100535Z AUTO 00000KT 10SM CLR 02/M02 A3010 RMK AO2 T00161016
KAEJ 100515Z AUTO 10004KT 10SM SCT050 02/M02 A3010 RMK AO2 T00161017
KAEJ 100455Z AUTO 11006KT 10SM SCT050 02/M02 A3010 RMK AO2 T00181017
KAEJ 100435Z AUTO 14006KT 10SM CLR 02/M02 A3010 RMK AO2 T00201017
KAEJ 100415Z AUTO 12007KT 10SM CLR 02/M02 A3009 RMK AO2 T00201017
KAEJ 100355Z AUTO 11009KT 10SM CLR 02/M02 A3009 RMK AO2 T00201020
KAEJ 100335Z AUTO 11012KT 10SM CLR 02/M02 A3008 RMK AO2 T00211020
KAEJ 100315Z AUTO 11008KT 10SM CLR 03/M02 A3008 RMK AO2 T00251020
KAEJ 100255Z AUTO 14012KT 10SM CLR 03/M02 A3007 RMK AO2 T00291020
KAEJ 100235Z AUTO 14007G20KT 100V170 10SM CLR 04/M02 A3007 RMK AO2 T00351023
KAEJ 100215Z AUTO 13007KT 10SM CLR 04/M02 A3005 RMK AO2 T00361023
KAEJ 100155Z AUTO 25007G15KT 210V280 10SM CLR 05/M06 A3005 RMK AO2 T00511060
KAEJ 100135Z AUTO 24012G20KT 10SM CLR 08/M12 A3004 RMK AO2 T00811125
KAEJ 100115Z AUTO 24017KT 10SM SCT070 SCT100 09/M13 A3003 RMK AO2 T00851126
KAEJ 100055Z AUTO 25014G19KT 10SM SCT070 BKN085 10/M14 A3002 RMK AO2 T00981137
KAEJ 100035Z AUTO 24009G19KT 10SM BKN095 BKN110 10/M15 A3002 RMK AO2 T01031149
KAEJ 100015Z AUTO 21011G20KT 10SM CLR 11/M17 A3000 RMK AO2 T01071171
KAEJ 092355Z AUTO 23007KT 10SM CLR 11/M17 A2999 RMK AO2 T01111171 10132 20102
KAEJ 092335Z AUTO 23008G19KT 10SM CLR 12/M18 A2999 RMK AO2 T01181180
KAEJ 092315Z AUTO 25018G23KT 10SM SCT120 12/M17 A2999 RMK AO2 T01221173
KAEJ 092255Z AUTO 24008KT 10SM CLR 12/M16 A2999 RMK AO2 T01151165
KAEJ 092235Z AUTO 26012G22KT 10SM CLR 12/M17 A2999 RMK AO2 T01211170
KAEJ 092215Z AUTO 26014G21KT 10SM SCT120 12/M15 A2999 RMK AO2 T01201153
KAEJ 092155Z AUTO 25016G19KT 10SM BKN120 11/M15 A3000 RMK AO2 T01101147
KAEJ 092135Z AUTO 26016G23KT 10SM SCT110 12/M14 A3000 RMK AO2 T01161145
KAEJ 092115Z AUTO 22015G20KT 10SM BKN110 11/M15 A3000 RMK AO2 T01141147
KAEJ 092055Z AUTO 23018G24KT 10SM CLR 12/M16 A3000 RMK AO2 T01221159
KAEJ 092035Z AUTO 26014G21KT 10SM CLR 13/M14 A2999 RMK AO2 T01261145
KAEJ 092015Z AUTO 27017G29KT 10SM CLR 12/M14 A3000 RMK AO2 T01201141
KAEJ 091955Z AUTO 27016G23KT 10SM SCT110 12/M15 A3000 RMK AO2 T01231148
KAEJ 091935Z AUTO 24016G24KT 10SM SCT090 BKN120 12/M16 A3000 RMK AO2 T01211158
KAEJ 091915Z AUTO 23018G29KT 10SM SCT080 OVC100 12/M18 A3000 RMK AO2 T01201181
KAEJ 091855Z AUTO 15016G23KT 10SM OVC100 10/M05 A2999 RMK AO2 T01031048
KAEJ 091835Z AUTO 17015G25KT 10SM OVC100 10/M05 A3000 RMK AO2 T01031051
KAEJ 091815Z AUTO 16009G22KT 10SM OVC100 11/M09 A3000 RMK AO2 T01111086
KAEJ 091755Z AUTO 16011G18KT 10SM SCT070 BKN090 OVC110 11/M09 A3001 RMK AO2 T01121090 10112 21016
KAEJ 091735Z AUTO 11010G17KT 10SM SCT060 BKN100 BKN120 11/M07 A3002 RMK AO2 T01061069
KAEJ 091715Z AUTO 10005KT 10SM SCT048 SCT090 BKN120 10/M08 A3003 RMK AO2 T01021076
KAEJ 091655Z AUTO 07008KT 10SM SCT041 09/M05 A3003 RMK AO2 T00921046
KAEJ 091635Z AUTO 11007KT 10SM SCT039 09/M05 A3004 RMK AO2 T00881046
KAEJ 091615Z AUTO 10009KT 070V150 10SM CLR 08/M04 A3005 RMK AO2 T00791043
KAEJ 091555Z AUTO 00000KT 10SM CLR 08/M02 A3005 RMK AO2 T00751025
KAEJ 091535Z AUTO 12004KT 10SM CLR 06/M02 A3007 RMK AO2 T00641025
KAEJ 091515Z AUTO 00000KT 10SM CLR 06/M02 A3007 RMK AO2 T00611021
KAEJ 091455Z AUTO 00000KT 10SM SCT023 05/M02 A3009 RMK AO2 T00501017
KAEJ 091435Z AUTO 14003KT 10SM BKN021 04/M02 A3009 RMK AO2 T00441023
KAEJ 091415Z AUTO 02004KT 10SM BKN021 04/M04 A3009 RMK AO2 T00391039
KAEJ 091355Z AUTO 36005KT 10SM SCT021 02/M04 A3009 RMK AO2 T00241037
KAEJ 091335Z AUTO 01003KT 10SM SCT021 SCT026 02/M04 A3008 RMK AO2 T00231036
KAEJ 091315Z AUTO 00000KT 10SM CLR 01/M03 A3008 RMK AO2 T00111035
KAEJ 091255Z AUTO 29003KT 10SM CLR 00/M04 A3007 RMK AO2 T10031042
KAEJ 091235Z AUTO 00000KT 10SM CLR M01/M05 A3005 RMK AO2 T10141050
KAEJ 091215Z AUTO 26003KT 10SM CLR M01/M05 A3005 RMK AO2 T10141052
KAEJ 091155Z AUTO 28004KT 10SM CLR M01/M05 A3005 RMK AO2 T10131047 10058 21016
KAEJ 091135Z AUTO 29003KT 10SM CLR M02/M05 A3005 RMK AO2 T10161047
KAEJ 091115Z AUTO 00000KT 10SM CLR M01/M04 A3005 RMK AO2 T10101044
KAEJ 091055Z AUTO 26003KT 10SM CLR 00/M04 A3004 RMK AO2 T10051045
KAEJ 091035Z AUTO 23005KT 10SM SCT022 M01/M05 A3005 RMK AO2 T10091046
KAEJ 091015Z AUTO 00000KT 10SM CLR 00/M04 A3005 RMK AO2 T10051042